createdAt,value
2022-08-31T00:01:07.883Z,2.40
2022-08-31T00:03:58.333Z,2.40
2022-08-31T00:08:56.420Z,2.80
2022-08-31T00:11:32.233Z,2.20
2022-08-31T00:14:04.724Z,2.50
2022-08-31T00:16:39.043Z,2.10
2022-08-31T00:19:08.127Z,2.00
2022-08-31T00:21:36.772Z,2.40
2022-08-31T00:24:06.106Z,1.80
2022-08-31T00:26:35.720Z,2.80
2022-08-31T00:29:05.743Z,2.90
2022-08-31T00:31:34.722Z,2.50
2022-08-31T00:34:06.102Z,2.50
2022-08-31T00:36:35.183Z,2.50
2022-08-31T00:39:06.848Z,2.60
2022-08-31T00:41:38.737Z,2.50
2022-08-31T00:44:10.884Z,2.60
2022-08-31T00:46:42.784Z,2.30
2022-08-31T00:49:22.362Z,2.70
2022-08-31T00:51:59.659Z,2.40
2022-08-31T00:54:35.012Z,2.50
2022-08-31T00:57:05.938Z,2.80
2022-08-31T00:59:35.361Z,2.40
2022-08-31T01:02:05.038Z,3.00
2022-08-31T01:04:35.726Z,2.90
2022-08-31T01:07:08.493Z,3.40
2022-08-31T01:09:45.101Z,3.30
2022-08-31T01:12:25.993Z,3.30
2022-08-31T01:14:55.817Z,3.10
2022-08-31T01:17:24.445Z,3.00
2022-08-31T01:20:12.565Z,3.20
2022-08-31T01:23:16.976Z,2.10
2022-08-31T01:25:48.705Z,2.30
2022-08-31T01:28:18.132Z,2.00
2022-08-31T01:31:04.692Z,2.30
2022-08-31T01:33:37.218Z,1.90
2022-08-31T01:36:11.109Z,2.50
2022-08-31T01:38:43.995Z,2.50
2022-08-31T01:41:13.831Z,1.80
2022-08-31T01:43:43.262Z,1.80
2022-08-31T01:46:14.089Z,2.90
2022-08-31T01:48:44.525Z,2.20
2022-08-31T01:51:17.301Z,2.80
2022-08-31T01:53:48.669Z,2.50
2022-08-31T01:56:27.104Z,2.30
2022-08-31T01:58:59.220Z,2.60
2022-08-31T02:01:53.808Z,1.90
2022-08-31T02:04:25.788Z,2.50
2022-08-31T02:07:00.510Z,2.00
2022-08-31T02:09:29.774Z,2.20
2022-08-31T02:12:01.061Z,3.80
2022-08-31T02:14:29.729Z,2.90
2022-08-31T02:16:58.572Z,2.10
2022-08-31T02:19:28.427Z,2.70
2022-08-31T02:21:57.800Z,2.30
2022-08-31T02:24:26.461Z,2.30
2022-08-31T02:26:57.748Z,2.00
2022-08-31T02:29:27.925Z,2.30
2022-08-31T02:31:57.488Z,1.80
2022-08-31T02:34:27.135Z,1.80
2022-08-31T02:36:56.934Z,2.10
2022-08-31T02:39:25.749Z,2.80
2022-08-31T02:41:56.869Z,2.30
2022-08-31T02:44:25.801Z,2.10
2022-08-31T02:46:54.456Z,2.40
2022-08-31T02:49:47.140Z,2.30
2022-08-31T02:52:15.931Z,2.20
2022-08-31T02:54:44.487Z,2.50
2022-08-31T02:57:13.675Z,2.00
2022-08-31T02:59:42.657Z,2.10
2022-08-31T03:02:11.356Z,2.00
2022-08-31T03:04:41.566Z,2.30
2022-08-31T03:07:10.503Z,2.60
2022-08-31T03:09:39.202Z,2.60
2022-08-31T03:12:08.602Z,2.80
2022-08-31T03:14:38.001Z,3.00
2022-08-31T03:17:06.690Z,3.10
2022-08-31T03:19:35.550Z,3.10
2022-08-31T03:22:05.589Z,3.00
2022-08-31T03:24:34.231Z,4.10
2022-08-31T03:27:03.526Z,3.50
2022-08-31T03:29:32.479Z,3.70
2022-08-31T03:32:15.359Z,3.90
2022-08-31T03:34:46.687Z,3.10
2022-08-31T03:37:15.943Z,3.20
2022-08-31T03:39:45.448Z,3.30
2022-08-31T03:42:13.956Z,3.80
2022-08-31T03:44:42.722Z,3.80
2022-08-31T03:47:18.783Z,4.70
2022-08-31T03:49:48.011Z,4.90
2022-08-31T03:52:22.279Z,4.40
2022-08-31T03:54:58.890Z,4.10
2022-08-31T03:57:27.549Z,4.10
2022-08-31T04:00:01.228Z,4.20
2022-08-31T04:02:42.574Z,3.80
2022-08-31T04:05:46.539Z,5.80
2022-08-31T04:08:17.086Z,4.80
2022-08-31T04:11:17.231Z,3.80
2022-08-31T04:14:21.336Z,4.70
2022-08-31T04:17:13.384Z,4.10
2022-08-31T04:19:46.027Z,6.70
2022-08-31T04:22:27.541Z,3.90
2022-08-31T04:25:19.064Z,4.20
2022-08-31T04:27:50.999Z,4.40
2022-08-31T04:30:22.110Z,4.60
2022-08-31T04:32:50.739Z,4.30
2022-08-31T04:35:19.515Z,3.70
2022-08-31T04:37:48.552Z,4.90
2022-08-31T04:40:25.594Z,4.70
2022-08-31T04:42:55.445Z,4.70
2022-08-31T04:45:25.822Z,4.00
2022-08-31T04:47:54.467Z,4.30
2022-08-31T04:50:23.712Z,3.70
2022-08-31T04:53:10.354Z,4.10
2022-08-31T04:55:43.627Z,3.90
2022-08-31T04:58:14.061Z,3.90
2022-08-31T05:00:44.482Z,4.50
2022-08-31T05:03:36.175Z,4.00
2022-08-31T05:06:05.985Z,4.40
2022-08-31T05:08:35.426Z,4.10
2022-08-31T05:11:15.578Z,4.80
2022-08-31T05:13:45.428Z,5.30
2022-08-31T05:16:16.924Z,5.60
2022-08-31T05:18:48.430Z,4.50
2022-08-31T05:21:28.716Z,4.60
2022-08-31T05:24:20.546Z,5.40
2022-08-31T05:26:52.360Z,5.90
2022-08-31T05:29:24.293Z,5.40
2022-08-31T05:31:59.960Z,4.50
2022-08-31T05:34:28.677Z,4.50
2022-08-31T05:36:57.780Z,4.60
2022-08-31T05:39:32.784Z,3.70
2022-08-31T05:42:02.110Z,4.70
2022-08-31T05:44:35.365Z,4.70
2022-08-31T05:47:09.442Z,4.10
2022-08-31T05:49:39.408Z,5.00
2022-08-31T05:52:11.006Z,4.80
2022-08-31T05:54:40.898Z,4.30
2022-08-31T05:57:09.913Z,4.70
2022-08-31T05:59:39.746Z,4.10
2022-08-31T06:02:12.213Z,4.10
2022-08-31T06:04:41.612Z,5.00
2022-08-31T06:07:10.964Z,4.70
2022-08-31T06:09:46.309Z,6.20
2022-08-31T06:12:20.437Z,5.40
2022-08-31T06:14:53.251Z,5.50
2022-08-31T06:17:24.579Z,5.30
2022-08-31T06:19:53.862Z,5.50
2022-08-31T06:22:23.808Z,4.80
2022-08-31T06:24:55.145Z,5.40
2022-08-31T06:27:25.848Z,5.60
2022-08-31T06:30:06.940Z,6.10
2022-08-31T06:32:36.796Z,5.70
2022-08-31T06:35:07.383Z,5.80
2022-08-31T06:37:54.722Z,5.50
2022-08-31T06:41:02.421Z,5.40
2022-08-31T06:44:02.353Z,4.70
2022-08-31T06:46:47.263Z,5.80
2022-08-31T06:49:27.088Z,5.60
2022-08-31T06:51:56.058Z,5.10
2022-08-31T06:54:31.893Z,5.60
2022-08-31T06:57:20.548Z,6.50
2022-08-31T07:00:08.777Z,6.30
2022-08-31T07:02:40.834Z,5.40
2022-08-31T07:05:15.090Z,5.60
2022-08-31T07:07:49.144Z,5.70
2022-08-31T07:10:19.820Z,6.30
2022-08-31T07:12:48.557Z,6.90
2022-08-31T07:15:17.712Z,7.10
2022-08-31T07:17:46.871Z,7.90
2022-08-31T07:20:15.469Z,9.60
2022-08-31T07:22:46.754Z,9.60
2022-08-31T07:25:39.517Z,11.90
2022-08-31T07:28:08.881Z,11.40
2022-08-31T07:30:42.509Z,11.10
2022-08-31T07:33:15.254Z,11.10
2022-08-31T07:35:49.748Z,16.10
2022-08-31T07:38:47.382Z,13.40
2022-08-31T07:41:55.483Z,11.50
2022-08-31T07:44:25.205Z,11.00
2022-08-31T07:46:55.431Z,8.30
2022-08-31T07:49:26.789Z,15.60
2022-08-31T07:52:16.578Z,12.60
2022-08-31T07:58:13.717Z,9.80
2022-08-31T08:00:43.634Z,8.90
2022-08-31T08:03:13.460Z,8.20
2022-08-31T08:06:13.520Z,8.20
2022-08-31T08:09:21.460Z,7.90
2022-08-31T08:12:08.377Z,7.50
2022-08-31T08:14:46.089Z,6.80
2022-08-31T08:17:41.401Z,6.00
2022-08-31T08:20:14.111Z,7.20
2022-08-31T08:22:55.329Z,7.50
2022-08-31T08:25:36.734Z,6.90
2022-08-31T08:28:45.734Z,7.30
2022-08-31T08:31:23.586Z,6.80
2022-08-31T08:33:52.770Z,7.10
2022-08-31T08:36:21.840Z,7.40
2022-08-31T08:38:54.565Z,6.80
2022-08-31T08:41:29.356Z,7.30
2022-08-31T08:44:02.759Z,7.30
2022-08-31T08:46:41.339Z,7.00
2022-08-31T08:49:30.618Z,6.70
2022-08-31T08:52:42.653Z,7.70
2022-08-31T08:55:32.109Z,7.30
2022-08-31T08:58:06.328Z,8.30
2022-08-31T09:00:35.761Z,8.00
2022-08-31T09:03:23.104Z,6.80
2022-08-31T09:06:17.226Z,7.60
2022-08-31T09:09:41.477Z,7.50
2022-08-31T09:15:36.954Z,7.70
2022-08-31T09:18:29.459Z,7.00
2022-08-31T09:21:25.602Z,8.00
2022-08-31T09:24:02.737Z,7.80
2022-08-31T09:27:20.584Z,8.40
2022-08-31T09:30:00.483Z,8.00
2022-08-31T09:32:35.880Z,7.20
2022-08-31T09:35:09.645Z,7.00
2022-08-31T09:37:46.655Z,7.50
2022-08-31T09:40:36.913Z,6.90
2022-08-31T09:43:16.467Z,7.40
2022-08-31T09:46:02.201Z,7.30
2022-08-31T09:48:52.592Z,7.00
2022-08-31T09:51:39.843Z,6.60
2022-08-31T09:54:47.402Z,7.20
2022-08-31T09:57:18.121Z,7.50
2022-08-31T09:59:50.373Z,8.40
2022-08-31T10:02:23.475Z,9.30
2022-08-31T10:04:59.473Z,7.70
2022-08-31T10:07:57.106Z,7.10
2022-08-31T10:10:31.922Z,8.40
2022-08-31T10:13:04.586Z,8.10
2022-08-31T10:15:49.100Z,7.40
2022-08-31T10:18:52.823Z,8.90
2022-08-31T10:21:32.111Z,6.10
2022-08-31T10:24:21.526Z,7.20
2022-08-31T10:27:03.552Z,15.40
2022-08-31T10:29:43.353Z,26.80
2022-08-31T10:35:06.192Z,6.50
2022-08-31T10:37:37.189Z,5.10
2022-08-31T10:40:12.696Z,3.90
2022-08-31T10:43:14.661Z,3.80
2022-08-31T10:45:49.796Z,3.90
2022-08-31T10:48:26.032Z,4.10
2022-08-31T10:51:19.922Z,3.90
2022-08-31T10:54:01.780Z,4.50
2022-08-31T10:56:45.764Z,4.50
2022-08-31T10:59:56.526Z,4.40
2022-08-31T11:02:28.826Z,5.30
2022-08-31T11:05:06.433Z,5.40
2022-08-31T11:07:47.975Z,5.30
2022-08-31T11:10:20.271Z,5.30
2022-08-31T11:13:06.356Z,5.40
2022-08-31T11:15:54.740Z,6.20
2022-08-31T11:18:51.548Z,4.70
2022-08-31T11:21:39.229Z,4.80
2022-08-31T11:24:14.106Z,5.30
2022-08-31T11:27:00.645Z,5.50
2022-08-31T11:29:44.323Z,12.50
2022-08-31T11:32:50.825Z,5.10
2022-08-31T11:35:48.936Z,4.80
2022-08-31T11:38:43.180Z,5.00
2022-08-31T11:41:32.179Z,4.30
2022-08-31T11:44:04.673Z,5.30
2022-08-31T11:46:43.705Z,5.10
2022-08-31T11:49:40.465Z,5.80
2022-08-31T11:52:30.140Z,6.90
2022-08-31T11:55:00.937Z,4.50
2022-08-31T11:57:37.446Z,4.70
2022-08-31T12:00:19.851Z,4.40
2022-08-31T12:03:04.991Z,6.70
2022-08-31T12:05:56.729Z,3.90
2022-08-31T12:08:33.253Z,4.10
2022-08-31T12:11:35.481Z,3.10
2022-08-31T12:14:30.135Z,3.50
2022-08-31T12:17:10.045Z,2.90
2022-08-31T12:20:10.069Z,2.40
2022-08-31T12:26:14.036Z,3.00
2022-08-31T12:29:04.097Z,3.20
2022-08-31T12:31:37.042Z,3.50
2022-08-31T12:34:24.740Z,2.90
2022-08-31T12:36:54.336Z,3.30
2022-08-31T12:39:26.181Z,2.90
2022-08-31T12:42:00.680Z,2.40
2022-08-31T12:44:36.734Z,2.80
2022-08-31T12:47:28.215Z,3.30
2022-08-31T12:50:20.753Z,3.60
2022-08-31T12:53:07.682Z,3.80
2022-08-31T12:56:01.793Z,3.30
2022-08-31T12:59:09.724Z,3.90
2022-08-31T13:01:46.741Z,3.10
2022-08-31T13:04:19.055Z,2.90
2022-08-31T13:06:51.291Z,2.50
2022-08-31T13:09:32.514Z,2.10
2022-08-31T13:12:02.208Z,2.40
2022-08-31T13:14:43.921Z,3.00
2022-08-31T13:17:18.241Z,2.20
2022-08-31T13:19:56.920Z,1.90
2022-08-31T13:22:43.026Z,2.40
2022-08-31T13:25:17.005Z,2.50
2022-08-31T13:27:51.841Z,2.00
2022-08-31T13:30:39.362Z,2.20
2022-08-31T13:33:31.518Z,2.00
2022-08-31T13:36:33.179Z,6.40
2022-08-31T13:39:16.352Z,2.20
2022-08-31T13:42:06.651Z,2.10
2022-08-31T13:44:40.099Z,1.50
2022-08-31T13:47:28.112Z,1.80
2022-08-31T13:50:13.442Z,2.20
2022-08-31T13:53:22.676Z,3.00
2022-08-31T13:55:44.464Z,1.70
2022-08-31T13:58:33.242Z,1.70
2022-08-31T14:01:25.417Z,1.60
2022-08-31T14:04:01.044Z,1.80
2022-08-31T14:06:39.414Z,1.90
2022-08-31T14:09:16.613Z,1.10
2022-08-31T14:12:04.727Z,1.00
2022-08-31T14:14:43.937Z,1.40
2022-08-31T14:17:18.217Z,1.60
2022-08-31T14:19:47.438Z,1.50
2022-08-31T14:22:32.641Z,1.00
2022-08-31T14:25:03.129Z,7.60
2022-08-31T14:27:37.155Z,2.00
2022-08-31T14:30:13.433Z,1.50
2022-08-31T14:32:45.997Z,1.50
2022-08-31T14:35:14.941Z,1.90
2022-08-31T14:37:44.726Z,1.30
2022-08-31T14:40:14.391Z,1.80
2022-08-31T14:42:44.700Z,1.50
2022-08-31T14:45:18.967Z,1.90
2022-08-31T14:47:52.646Z,1.40
2022-08-31T14:50:30.295Z,1.30
2022-08-31T14:53:01.908Z,1.70
2022-08-31T14:55:31.280Z,1.30
2022-08-31T14:58:05.651Z,1.20
2022-08-31T15:00:44.281Z,1.50
2022-08-31T15:03:15.393Z,1.30
2022-08-31T15:05:47.866Z,1.30
2022-08-31T15:08:22.903Z,1.80
2022-08-31T15:11:07.059Z,2.30
2022-08-31T15:13:39.579Z,1.50
2022-08-31T15:16:13.593Z,2.40
2022-08-31T15:18:43.866Z,1.60
2022-08-31T15:21:13.033Z,1.70
2022-08-31T15:23:42.121Z,1.50
2022-08-31T15:26:15.395Z,1.60
2022-08-31T15:28:44.174Z,1.30
2022-08-31T15:31:22.292Z,2.50
2022-08-31T15:33:54.193Z,1.30
2022-08-31T15:36:25.443Z,1.30
2022-08-31T15:38:57.497Z,1.70
2022-08-31T15:41:29.837Z,2.00
2022-08-31T15:43:58.719Z,1.90
2022-08-31T15:46:46.426Z,2.00
2022-08-31T15:49:15.497Z,2.00
2022-08-31T15:51:50.602Z,2.10
2022-08-31T15:54:22.966Z,1.70
2022-08-31T15:56:53.755Z,1.60
2022-08-31T15:59:25.491Z,1.50
2022-08-31T16:01:54.315Z,1.80
2022-08-31T16:04:26.286Z,2.00
2022-08-31T16:06:55.914Z,1.70
2022-08-31T16:09:24.512Z,2.10
2022-08-31T16:11:53.866Z,1.90
2022-08-31T16:14:23.459Z,2.10
2022-08-31T16:16:52.211Z,2.80
2022-08-31T16:19:34.725Z,2.00
2022-08-31T16:22:07.991Z,1.80
2022-08-31T16:24:37.852Z,2.60
2022-08-31T16:29:37.387Z,2.60
2022-08-31T16:32:07.154Z,2.40
2022-08-31T16:34:37.749Z,1.80
2022-08-31T16:37:08.296Z,2.30
2022-08-31T16:39:44.503Z,2.00
2022-08-31T16:42:14.775Z,3.00
2022-08-31T16:44:47.976Z,3.30
2022-08-31T16:47:19.320Z,3.50
2022-08-31T16:49:48.634Z,3.30
2022-08-31T16:52:22.035Z,3.00
2022-08-31T16:54:52.668Z,2.70
2022-08-31T16:57:27.713Z,2.90
2022-08-31T16:59:58.780Z,2.30
2022-08-31T17:05:33.608Z,2.20
2022-08-31T17:08:23.921Z,2.40
2022-08-31T17:11:31.868Z,3.00
2022-08-31T17:14:26.145Z,2.00
2022-08-31T17:17:14.925Z,2.50
2022-08-31T17:20:09.246Z,2.50
2022-08-31T17:22:55.715Z,2.80
2022-08-31T17:25:51.596Z,3.00
2022-08-31T17:28:42.382Z,2.00
2022-08-31T17:31:35.017Z,2.70
2022-08-31T17:34:26.589Z,2.30
2022-08-31T17:37:17.953Z,3.30
2022-08-31T17:39:56.009Z,3.00
2022-08-31T17:42:42.618Z,2.50
2022-08-31T17:45:11.774Z,3.10
2022-08-31T17:47:40.530Z,1.90
2022-08-31T17:50:09.891Z,2.50
2022-08-31T17:52:38.715Z,2.20
2022-08-31T17:55:07.696Z,2.20
2022-08-31T17:57:37.022Z,8.00
2022-08-31T18:00:07.270Z,2.20
2022-08-31T18:02:38.543Z,3.00
2022-08-31T18:05:11.598Z,3.00
2022-08-31T18:07:41.622Z,3.30
2022-08-31T18:10:11.219Z,4.20
2022-08-31T18:12:42.314Z,3.10
2022-08-31T18:15:13.060Z,4.10
2022-08-31T18:17:43.364Z,3.00
2022-08-31T18:20:12.807Z,3.30
2022-08-31T18:22:41.531Z,4.50
2022-08-31T18:25:11.111Z,2.80
2022-08-31T18:27:40.316Z,2.80
2022-08-31T18:30:12.388Z,5.20
2022-08-31T18:32:42.539Z,5.60
2022-08-31T18:35:17.012Z,5.10
2022-08-31T18:37:46.056Z,4.20
2022-08-31T18:40:33.576Z,3.60
2022-08-31T18:43:21.686Z,4.50
2022-08-31T18:45:51.561Z,3.80
2022-08-31T18:50:59.436Z,3.00
2022-08-31T18:53:32.770Z,3.50
2022-08-31T18:56:11.106Z,3.30
2022-08-31T18:58:40.508Z,3.90
2022-08-31T19:01:13.020Z,3.50
2022-08-31T19:03:42.838Z,4.40
2022-08-31T19:06:18.631Z,3.30
2022-08-31T19:08:47.843Z,3.50
2022-08-31T19:11:19.792Z,3.30
2022-08-31T19:13:51.318Z,3.80
2022-08-31T19:16:25.167Z,3.80
2022-08-31T19:18:58.008Z,4.30
2022-08-31T19:21:33.789Z,3.00
2022-08-31T19:24:06.043Z,3.20
2022-08-31T19:26:42.339Z,3.30
2022-08-31T19:29:14.615Z,3.00
2022-08-31T19:31:46.553Z,2.80
2022-08-31T19:34:20.152Z,4.10
2022-08-31T19:36:54.466Z,3.70
2022-08-31T19:39:27.422Z,3.70
2022-08-31T19:41:59.705Z,2.80
2022-08-31T19:44:29.323Z,2.50
2022-08-31T19:47:25.063Z,2.50
2022-08-31T19:49:54.276Z,2.80
2022-08-31T19:52:25.505Z,2.50
2022-08-31T19:54:54.443Z,2.60
2022-08-31T19:57:23.267Z,2.40
2022-08-31T19:59:57.551Z,2.80
2022-08-31T20:02:27.423Z,2.50
2022-08-31T20:04:56.546Z,2.50
2022-08-31T20:07:26.060Z,2.70
2022-08-31T20:09:59.541Z,3.10
2022-08-31T20:12:28.257Z,3.60
2022-08-31T20:14:57.245Z,3.80
2022-08-31T20:17:30.796Z,2.30
2022-08-31T20:20:00.306Z,2.90
2022-08-31T20:22:29.897Z,3.20
2022-08-31T20:25:01.557Z,3.20
2022-08-31T20:27:31.332Z,2.60
2022-08-31T20:30:00.694Z,2.50
2022-08-31T20:32:29.970Z,2.50
2022-08-31T20:35:01.393Z,2.40
2022-08-31T20:37:30.859Z,2.80
2022-08-31T20:39:59.443Z,2.60
2022-08-31T20:42:29.132Z,2.30
2022-08-31T20:44:58.407Z,3.00
2022-08-31T20:47:46.365Z,3.00
2022-08-31T20:50:15.583Z,3.30
2022-08-31T20:52:44.052Z,3.90
2022-08-31T20:55:14.681Z,4.20
2022-08-31T20:57:43.610Z,4.10
2022-08-31T21:00:12.667Z,4.40
2022-08-31T21:02:41.532Z,4.30
2022-08-31T21:05:37.305Z,4.20
2022-08-31T21:08:00.624Z,4.40
2022-08-31T21:10:37.125Z,4.90
2022-08-31T21:13:13.204Z,4.30
2022-08-31T21:15:46.521Z,4.20
2022-08-31T21:18:20.035Z,4.20
2022-08-31T21:20:49.298Z,3.80
2022-08-31T21:23:18.796Z,4.10
2022-08-31T21:25:47.959Z,3.30
2022-08-31T21:28:18.253Z,4.10
2022-08-31T21:33:19.778Z,4.00
2022-08-31T21:35:49.211Z,3.90
2022-08-31T21:38:18.782Z,4.20
2022-08-31T21:40:49.560Z,4.60
2022-08-31T21:43:18.719Z,4.10
2022-08-31T21:45:47.845Z,4.30
2022-08-31T21:48:25.819Z,4.10
2022-08-31T21:50:56.333Z,3.90
2022-08-31T21:55:55.241Z,3.70
2022-08-31T21:58:24.137Z,3.40
2022-08-31T22:00:55.969Z,3.30
2022-08-31T22:03:25.329Z,3.60
2022-08-31T22:05:54.981Z,4.10
2022-08-31T22:08:26.458Z,3.70
2022-08-31T22:10:55.870Z,4.10
2022-08-31T22:13:24.433Z,3.80
2022-08-31T22:15:57.134Z,3.50
2022-08-31T22:21:24.444Z,4.00
2022-08-31T22:23:57.400Z,3.40
2022-08-31T22:26:29.046Z,4.20
2022-08-31T22:28:59.719Z,3.50
2022-08-31T22:31:28.463Z,3.50
2022-08-31T22:33:58.237Z,3.80
2022-08-31T22:36:32.357Z,4.20
2022-08-31T22:39:08.059Z,3.50
2022-08-31T22:41:38.592Z,3.00
2022-08-31T22:46:39.010Z,3.20
2022-08-31T22:49:08.320Z,3.50
2022-08-31T22:51:40.768Z,3.60
2022-08-31T22:54:11.189Z,3.60
2022-08-31T22:59:13.933Z,4.10
2022-08-31T23:01:47.930Z,4.40
2022-08-31T23:04:21.390Z,3.90
2022-08-31T23:06:52.036Z,4.20
2022-08-31T23:11:54.192Z,4.10
2022-08-31T23:14:24.181Z,4.80
2022-08-31T23:16:57.415Z,3.60
2022-08-31T23:19:31.465Z,4.00
2022-08-31T23:22:01.203Z,3.90
2022-08-31T23:24:37.575Z,4.10
2022-08-31T23:27:10.710Z,4.20
2022-08-31T23:29:46.109Z,3.70
2022-08-31T23:32:18.351Z,4.20
2022-08-31T23:34:50.522Z,4.00
2022-08-31T23:37:23.452Z,3.80
2022-08-31T23:39:56.712Z,3.90
2022-08-31T23:42:28.835Z,3.30
2022-08-31T23:44:58.709Z,4.30
2022-08-31T23:47:30.417Z,4.00
2022-08-31T23:50:00.169Z,3.30
2022-08-31T23:52:31.746Z,3.50
2022-08-31T23:55:01.752Z,3.20
2022-08-31T23:57:32.454Z,4.20
